GJS4388 KRIC-KORD
Flight info
| Callsign | GJS4388 |
|---|---|
| Flight time | N/A |
| Altitude | 34000 |
| Route | KALLI7 READE MOL GEFFS J149 ROD WATSN4 |
| Aircraft | CRJ7/M-SDFGIRWY/S |
Departure
| Time | 2026-04-30 21:29 |
|---|---|
| Airport | Richmond International Airport (KRIC) |
Arrival
| Time | N/A |
|---|---|
| Airport | Chicago O'Hare International Airport (KORD) |
| Time | Latitude | Longitude | Altitude | Speed | Heading |
|---|---|---|---|---|---|
| 2026-04-30 20:54 | 37.50752 | -77.33126 | 174 ft | 0 kts | 238° |
| 2026-04-30 21:17 | 37.50759 | -77.33113 | 174 ft | 2 kts | 238° |
| 2026-04-30 21:17 | 37.50766 | -77.33097 | 174 ft | 2 kts | 244° |
| 2026-04-30 21:17 | 37.50770 | -77.33080 | 174 ft | 2 kts | 267° |
| 2026-04-30 21:18 | 37.50769 | -77.33061 | 174 ft | 2 kts | 279° |
| 2026-04-30 21:18 | 37.50766 | -77.33043 | 174 ft | 2 kts | 279° |
| 2026-04-30 21:18 | 37.50766 | -77.33039 | 174 ft | 0 kts | 279° |
| 2026-04-30 21:20 | 37.50764 | -77.33044 | 174 ft | 2 kts | 235° |
| 2026-04-30 21:21 | 37.50746 | -77.33049 | 174 ft | 5 kts | 167° |
| 2026-04-30 21:21 | 37.50719 | -77.33023 | 174 ft | 2 kts | 110° |
| 2026-04-30 21:21 | 37.50717 | -77.33011 | 174 ft | 3 kts | 108° |
| 2026-04-30 21:22 | 37.50707 | -77.32979 | 174 ft | 4 kts | 122° |
| 2026-04-30 21:22 | 37.50549 | -77.32997 | 174 ft | 10 kts | 194° |
| 2026-04-30 21:23 | 37.50488 | -77.32981 | 174 ft | 10 kts | 132° |
| 2026-04-30 21:23 | 37.50467 | -77.32900 | 175 ft | 10 kts | 103° |
| 2026-04-30 21:23 | 37.50439 | -77.32648 | 174 ft | 18 kts | 95° |
| 2026-04-30 21:24 | 37.50430 | -77.32487 | 174 ft | 19 kts | 94° |
| 2026-04-30 21:24 | 37.50419 | -77.32321 | 174 ft | 20 kts | 95° |
| 2026-04-30 21:24 | 37.50409 | -77.32145 | 174 ft | 20 kts | 94° |
| 2026-04-30 21:24 | 37.50398 | -77.31964 | 174 ft | 21 kts | 95° |
| 2026-04-30 21:25 | 37.50367 | -77.31653 | 174 ft | 14 kts | 115° |
| 2026-04-30 21:25 | 37.50295 | -77.31568 | 174 ft | 15 kts | 147° |
| 2026-04-30 21:25 | 37.50204 | -77.31496 | 174 ft | 16 kts | 148° |
| 2026-04-30 21:26 | 37.50013 | -77.31343 | 174 ft | 17 kts | 147° |
| 2026-04-30 21:26 | 37.49912 | -77.31262 | 174 ft | 17 kts | 147° |
| 2026-04-30 21:27 | 37.49710 | -77.31101 | 174 ft | 17 kts | 147° |
| 2026-04-30 21:27 | 37.49613 | -77.31023 | 174 ft | 16 kts | 147° |
| 2026-04-30 21:27 | 37.49535 | -77.30960 | 174 ft | 12 kts | 146° |
| 2026-04-30 21:28 | 37.49539 | -77.30792 | 174 ft | 11 kts | 58° |
| 2026-04-30 21:28 | 37.49589 | -77.30717 | 174 ft | 11 kts | 15° |
| 2026-04-30 21:28 | 37.50057 | -77.31072 | 172 ft | 106 kts | 327° |
| 2026-04-30 21:29 | 37.50844 | -77.31689 | 410 ft | 144 kts | 328° |
| 2026-04-30 21:29 | 37.52412 | -77.34855 | 2213 ft | 196 kts | 263° |
| 2026-04-30 21:30 | 37.51687 | -77.38071 | 3969 ft | 200 kts | 258° |
| 2026-04-30 21:31 | 37.50557 | -77.44071 | 6407 ft | 255 kts | 258° |
| 2026-04-30 21:31 | 37.49804 | -77.48455 | 8614 ft | 257 kts | 259° |
| 2026-04-30 21:32 | 37.49110 | -77.52896 | 10633 ft | 267 kts | 259° |
| 2026-04-30 21:32 | 37.48700 | -77.55266 | 11307 ft | 281 kts | 257° |
| 2026-04-30 21:32 | 37.48202 | -77.57707 | 12035 ft | 293 kts | 256° |
| 2026-04-30 21:32 | 37.47651 | -77.60175 | 13100 ft | 294 kts | 254° |
| 2026-04-30 21:33 | 37.47042 | -77.62692 | 13722 ft | 309 kts | 254° |
| 2026-04-30 21:33 | 37.45664 | -77.67987 | 15081 ft | 324 kts | 252° |
| 2026-04-30 21:33 | 37.44912 | -77.70683 | 15848 ft | 328 kts | 252° |
| 2026-04-30 21:34 | 37.44152 | -77.73413 | 16579 ft | 332 kts | 253° |
| 2026-04-30 21:34 | 37.42662 | -77.79009 | 17986 ft | 340 kts | 253° |
| 2026-04-30 21:34 | 37.41908 | -77.81839 | 18607 ft | 343 kts | 253° |
| 2026-04-30 21:35 | 37.41153 | -77.84665 | 19185 ft | 346 kts | 253° |
| 2026-04-30 21:35 | 37.40581 | -77.87597 | 19750 ft | 347 kts | 264° |
| 2026-04-30 21:35 | 37.40440 | -77.90634 | 20303 ft | 350 kts | 270° |
| 2026-04-30 21:35 | 37.40983 | -77.93643 | 20834 ft | 356 kts | 290° |
| 2026-04-30 21:36 | 37.42049 | -77.96469 | 21389 ft | 360 kts | 293° |
| 2026-04-30 21:36 | 37.43209 | -77.99274 | 21931 ft | 363 kts | 294° |
| 2026-04-30 21:37 | 37.46911 | -78.07707 | 23461 ft | 370 kts | 296° |
| 2026-04-30 21:37 | 37.48185 | -78.10522 | 23890 ft | 372 kts | 296° |
| 2026-04-30 21:37 | 37.49463 | -78.13352 | 24319 ft | 373 kts | 296° |
| 2026-04-30 21:37 | 37.50720 | -78.16241 | 24729 ft | 373 kts | 295° |
| 2026-04-30 21:38 | 37.51940 | -78.19106 | 25144 ft | 374 kts | 295° |
| 2026-04-30 21:38 | 37.53160 | -78.21974 | 25540 ft | 375 kts | 295° |
| 2026-04-30 21:38 | 37.54389 | -78.24881 | 25915 ft | 376 kts | 295° |
| 2026-04-30 21:38 | 37.55627 | -78.27817 | 26288 ft | 377 kts | 295° |
| 2026-04-30 21:39 | 37.56857 | -78.30735 | 26647 ft | 378 kts | 295° |
| 2026-04-30 21:39 | 37.58093 | -78.33666 | 27070 ft | 376 kts | 294° |
| 2026-04-30 21:39 | 37.59308 | -78.36545 | 27626 ft | 373 kts | 294° |
| 2026-04-30 21:39 | 37.60532 | -78.39456 | 28087 ft | 370 kts | 294° |
| 2026-04-30 21:40 | 37.61722 | -78.42287 | 28496 ft | 368 kts | 294° |
| 2026-04-30 21:40 | 37.62928 | -78.45158 | 28867 ft | 366 kts | 294° |
| 2026-04-30 21:40 | 37.64104 | -78.47960 | 29192 ft | 364 kts | 294° |
| 2026-04-30 21:40 | 37.65300 | -78.50812 | 29466 ft | 363 kts | 294° |
| 2026-04-30 21:41 | 37.66470 | -78.53609 | 29684 ft | 362 kts | 294° |
| 2026-04-30 21:41 | 37.67648 | -78.56426 | 29802 ft | 363 kts | 294° |
| 2026-04-30 21:41 | 37.70029 | -78.62135 | 29869 ft | 372 kts | 294° |
| 2026-04-30 21:42 | 37.72464 | -78.67983 | 29892 ft | 382 kts | 294° |
| 2026-04-30 21:42 | 37.74972 | -78.74012 | 29893 ft | 391 kts | 294° |
| 2026-04-30 21:43 | 37.77085 | -78.79098 | 29901 ft | 397 kts | 294° |
| 2026-04-30 21:43 | 37.80087 | -78.86337 | 29911 ft | 392 kts | 294° |
| 2026-04-30 21:44 | 37.82585 | -78.92374 | 29914 ft | 387 kts | 294° |
| 2026-04-30 21:44 | 37.85074 | -78.98405 | 29917 ft | 386 kts | 294° |
| 2026-04-30 21:45 | 37.87549 | -79.04409 | 29959 ft | 387 kts | 294° |
| 2026-04-30 21:45 | 37.89745 | -79.09384 | 29988 ft | 390 kts | 299° |
| 2026-04-30 21:46 | 37.93536 | -79.15828 | 30024 ft | 393 kts | 303° |
| 2026-04-30 21:46 | 37.96440 | -79.20277 | 30038 ft | 394 kts | 305° |
| 2026-04-30 21:47 | 37.99979 | -79.25568 | 30055 ft | 392 kts | 305° |
| 2026-04-30 21:47 | 38.03511 | -79.30870 | 30069 ft | 396 kts | 305° |
| 2026-04-30 21:48 | 38.07082 | -79.36244 | 30067 ft | 399 kts | 305° |
| 2026-04-30 21:48 | 38.10638 | -79.41601 | 30039 ft | 398 kts | 305° |
| 2026-04-30 21:49 | 38.14224 | -79.47014 | 30015 ft | 399 kts | 305° |
| 2026-04-30 21:49 | 38.17774 | -79.52378 | 29989 ft | 397 kts | 305° |
| 2026-04-30 21:50 | 38.21333 | -79.57768 | 29969 ft | 399 kts | 305° |
| 2026-04-30 21:50 | 38.24913 | -79.63200 | 29967 ft | 403 kts | 304° |
| 2026-04-30 21:51 | 38.28487 | -79.68620 | 29984 ft | 401 kts | 304° |
| 2026-04-30 21:51 | 38.32075 | -79.74084 | 29997 ft | 397 kts | 305° |
| 2026-04-30 21:52 | 38.35616 | -79.79482 | 30000 ft | 396 kts | 304° |
| 2026-04-30 21:52 | 38.39151 | -79.84875 | 30000 ft | 400 kts | 304° |
| 2026-04-30 21:53 | 38.42722 | -79.90344 | 30002 ft | 401 kts | 304° |
| 2026-04-30 21:53 | 38.46270 | -79.95777 | 30015 ft | 397 kts | 304° |
| 2026-04-30 21:54 | 38.49818 | -80.01225 | 30019 ft | 399 kts | 304° |
| 2026-04-30 21:54 | 38.53377 | -80.06694 | 30023 ft | 402 kts | 304° |
| 2026-04-30 21:55 | 38.56928 | -80.12162 | 30030 ft | 399 kts | 304° |
| 2026-04-30 21:55 | 38.60455 | -80.17604 | 30033 ft | 395 kts | 304° |
| 2026-04-30 21:56 | 38.63996 | -80.23075 | 30042 ft | 402 kts | 304° |
| 2026-04-30 21:56 | 38.67548 | -80.28571 | 30037 ft | 399 kts | 304° |
| 2026-04-30 21:57 | 38.71064 | -80.34015 | 30026 ft | 395 kts | 304° |
| 2026-04-30 21:57 | 38.74573 | -80.39463 | 30020 ft | 396 kts | 304° |
| 2026-04-30 21:58 | 38.78068 | -80.44902 | 30008 ft | 396 kts | 304° |
| 2026-04-30 21:58 | 38.81560 | -80.50346 | 30001 ft | 395 kts | 304° |
| 2026-04-30 21:59 | 38.85050 | -80.55794 | 29999 ft | 394 kts | 304° |
| 2026-04-30 22:00 | 38.90251 | -80.63923 | 30008 ft | 393 kts | 304° |
| 2026-04-30 22:00 | 38.95438 | -80.72055 | 30014 ft | 392 kts | 304° |
| 2026-04-30 22:01 | 38.98903 | -80.77506 | 30016 ft | 392 kts | 304° |
| 2026-04-30 22:01 | 39.02129 | -80.83106 | 30018 ft | 390 kts | 298° |
| 2026-04-30 22:02 | 39.04732 | -80.89210 | 30014 ft | 389 kts | 294° |
| 2026-04-30 22:02 | 39.07180 | -80.95377 | 30015 ft | 389 kts | 294° |
| 2026-04-30 22:03 | 39.09724 | -81.01557 | 30019 ft | 390 kts | 295° |
| 2026-04-30 22:03 | 39.12266 | -81.07723 | 30020 ft | 387 kts | 294° |
| 2026-04-30 22:04 | 39.14789 | -81.13840 | 30024 ft | 385 kts | 294° |
| 2026-04-30 22:05 | 39.18525 | -81.22935 | 30028 ft | 383 kts | 294° |
| 2026-04-30 22:05 | 39.21024 | -81.29036 | 30033 ft | 387 kts | 294° |
| 2026-04-30 22:06 | 39.23559 | -81.35224 | 30047 ft | 390 kts | 294° |
| 2026-04-30 22:06 | 39.27341 | -81.44493 | 30047 ft | 388 kts | 294° |
| 2026-04-30 22:07 | 39.29843 | -81.50645 | 30039 ft | 387 kts | 294° |
| 2026-04-30 22:07 | 39.32325 | -81.56754 | 30044 ft | 386 kts | 294° |
| 2026-04-30 22:08 | 39.34812 | -81.62886 | 30037 ft | 385 kts | 294° |
| 2026-04-30 22:08 | 39.37312 | -81.69057 | 30040 ft | 389 kts | 294° |
| 2026-04-30 22:09 | 39.39819 | -81.75271 | 30044 ft | 390 kts | 294° |
| 2026-04-30 22:09 | 39.42332 | -81.81510 | 30039 ft | 391 kts | 294° |
| 2026-04-30 22:10 | 39.44826 | -81.87713 | 30031 ft | 390 kts | 294° |
| 2026-04-30 22:10 | 39.47330 | -81.93956 | 30033 ft | 388 kts | 294° |
| 2026-04-30 22:11 | 39.51039 | -82.03214 | 30030 ft | 385 kts | 294° |
| 2026-04-30 22:12 | 39.53487 | -82.09346 | 30038 ft | 381 kts | 294° |
| 2026-04-30 22:12 | 39.55922 | -82.15461 | 30033 ft | 380 kts | 294° |
| 2026-04-30 22:13 | 39.58346 | -82.21561 | 30048 ft | 385 kts | 294° |
| 2026-04-30 22:13 | 39.60808 | -82.27769 | 30044 ft | 390 kts | 294° |
| 2026-04-30 22:14 | 39.63302 | -82.34072 | 30052 ft | 391 kts | 294° |
| 2026-04-30 22:14 | 39.65766 | -82.40300 | 30041 ft | 386 kts | 294° |
| 2026-04-30 22:15 | 39.68201 | -82.46478 | 30046 ft | 382 kts | 294° |
| 2026-04-30 22:15 | 39.70602 | -82.52577 | 30039 ft | 379 kts | 294° |
| 2026-04-30 22:16 | 39.73008 | -82.58705 | 30050 ft | 382 kts | 294° |
| 2026-04-30 22:17 | 39.77845 | -82.71062 | 30051 ft | 386 kts | 294° |
| 2026-04-30 22:17 | 39.81499 | -82.80433 | 30055 ft | 388 kts | 293° |
| 2026-04-30 22:18 | 39.85163 | -82.89849 | 30051 ft | 388 kts | 293° |
| 2026-04-30 22:19 | 39.88806 | -82.99244 | 30061 ft | 388 kts | 293° |
| 2026-04-30 22:20 | 39.92419 | -83.08598 | 30050 ft | 382 kts | 293° |
| 2026-04-30 22:20 | 39.95974 | -83.17821 | 30049 ft | 377 kts | 293° |
| 2026-04-30 22:21 | 39.98305 | -83.23890 | 30050 ft | 373 kts | 293° |
| 2026-04-30 22:21 | 40.00639 | -83.29978 | 30056 ft | 376 kts | 293° |
| 2026-04-30 22:22 | 40.02985 | -83.36106 | 30062 ft | 382 kts | 293° |
| 2026-04-30 22:22 | 40.05351 | -83.42300 | 30063 ft | 379 kts | 293° |
| 2026-04-30 22:23 | 40.07683 | -83.48422 | 30061 ft | 375 kts | 293° |
| 2026-04-30 22:23 | 40.10024 | -83.54568 | 30058 ft | 381 kts | 293° |
| 2026-04-30 22:24 | 40.12394 | -83.60824 | 30049 ft | 387 kts | 293° |
| 2026-04-30 22:24 | 40.14788 | -83.67145 | 30059 ft | 389 kts | 293° |
| 2026-04-30 22:25 | 40.17174 | -83.73459 | 30058 ft | 385 kts | 293° |
| 2026-04-30 22:25 | 40.19527 | -83.79697 | 30051 ft | 378 kts | 292° |
| 2026-04-30 22:26 | 40.22585 | -83.87825 | 30042 ft | 371 kts | 292° |
| 2026-04-30 22:27 | 40.25243 | -83.94911 | 30053 ft | 372 kts | 292° |
| 2026-04-30 22:27 | 40.28325 | -84.03063 | 30055 ft | 378 kts | 296° |
| 2026-04-30 22:28 | 40.33118 | -84.11422 | 30054 ft | 386 kts | 304° |
| 2026-04-30 22:29 | 40.38104 | -84.19348 | 30051 ft | 367 kts | 303° |
| 2026-04-30 22:29 | 40.39702 | -84.21950 | 30052 ft | 366 kts | 303° |
| 2026-04-30 22:30 | 40.46263 | -84.32700 | 30062 ft | 387 kts | 303° |
| 2026-04-30 22:31 | 40.51346 | -84.41050 | 30048 ft | 382 kts | 303° |
| 2026-04-30 22:32 | 40.59581 | -84.54625 | 30051 ft | 376 kts | 303° |
| 2026-04-30 22:33 | 40.67629 | -84.67954 | 30041 ft | 371 kts | 303° |
| 2026-04-30 22:34 | 40.72521 | -84.76103 | 30046 ft | 384 kts | 301° |
| 2026-04-30 22:35 | 40.74805 | -84.82407 | 30061 ft | 385 kts | 289° |
| 2026-04-30 22:36 | 40.80412 | -84.98697 | 30060 ft | 387 kts | 291° |
| 2026-04-30 22:37 | 40.84958 | -85.11520 | 30053 ft | 386 kts | 291° |
| 2026-04-30 22:38 | 40.89457 | -85.24264 | 30051 ft | 381 kts | 291° |
| 2026-04-30 22:39 | 40.92806 | -85.33782 | 30047 ft | 382 kts | 291° |
| 2026-04-30 22:40 | 40.99582 | -85.53149 | 29738 ft | 378 kts | 291° |
| 2026-04-30 22:41 | 41.02847 | -85.62526 | 28651 ft | 374 kts | 291° |
| 2026-04-30 22:41 | 41.05026 | -85.68802 | 27943 ft | 375 kts | 291° |
| 2026-04-30 22:42 | 41.09349 | -85.81296 | 26456 ft | 369 kts | 291° |
| 2026-04-30 22:43 | 41.11477 | -85.87471 | 25696 ft | 366 kts | 291° |
| 2026-04-30 22:43 | 41.13589 | -85.93612 | 25172 ft | 364 kts | 291° |
| 2026-04-30 22:44 | 41.15658 | -85.99640 | 24962 ft | 357 kts | 291° |
| 2026-04-30 22:45 | 41.19815 | -86.11796 | 23660 ft | 367 kts | 291° |
| 2026-04-30 22:45 | 41.21951 | -86.17997 | 22853 ft | 369 kts | 291° |
| 2026-04-30 22:46 | 41.24025 | -86.23954 | 22044 ft | 342 kts | 292° |
| 2026-04-30 22:47 | 41.27926 | -86.35069 | 20479 ft | 326 kts | 292° |
| 2026-04-30 22:47 | 41.29747 | -86.40331 | 19783 ft | 341 kts | 291° |
| 2026-04-30 22:48 | 41.31791 | -86.46342 | 19069 ft | 355 kts | 292° |
| 2026-04-30 22:49 | 41.34407 | -86.54992 | 17973 ft | 318 kts | 288° |
| 2026-04-30 22:49 | 41.36545 | -86.63014 | 16902 ft | 303 kts | 288° |
| 2026-04-30 22:50 | 41.39662 | -86.73918 | 15706 ft | 324 kts | 289° |
| 2026-04-30 22:51 | 41.41275 | -86.79560 | 15219 ft | 326 kts | 289° |
| 2026-04-30 22:51 | 41.42871 | -86.85163 | 14736 ft | 318 kts | 289° |
| 2026-04-30 22:52 | 41.43640 | -86.87872 | 14486 ft | 310 kts | 289° |
| 2026-04-30 22:52 | 41.45137 | -86.93141 | 13998 ft | 301 kts | 290° |
| 2026-04-30 22:53 | 41.46604 | -86.98318 | 13466 ft | 297 kts | 290° |
| 2026-04-30 22:53 | 41.48051 | -87.03422 | 12919 ft | 295 kts | 290° |
| 2026-04-30 22:53 | 41.48783 | -87.06018 | 12656 ft | 296 kts | 290° |
| 2026-04-30 22:54 | 41.50213 | -87.11076 | 12168 ft | 293 kts | 292° |
| 2026-04-30 22:55 | 41.53596 | -87.17532 | 12009 ft | 276 kts | 304° |
| 2026-04-30 22:55 | 41.55933 | -87.21680 | 12012 ft | 280 kts | 305° |
| 2026-04-30 22:56 | 41.58306 | -87.25821 | 12019 ft | 277 kts | 305° |
| 2026-04-30 22:56 | 41.61750 | -87.31840 | 12019 ft | 287 kts | 305° |
| 2026-04-30 22:57 | 41.64161 | -87.36050 | 12007 ft | 283 kts | 305° |
| 2026-04-30 22:57 | 41.66542 | -87.40223 | 12010 ft | 281 kts | 305° |
| 2026-04-30 22:58 | 41.68912 | -87.44388 | 12005 ft | 279 kts | 305° |
| 2026-04-30 22:59 | 41.72438 | -87.50590 | 12014 ft | 282 kts | 306° |
| 2026-04-30 22:59 | 41.75869 | -87.56629 | 12012 ft | 271 kts | 306° |